TAF AMD LDSB 252203Z 2522/2618 CNL=
TAF LDSB 251725Z 2518/2618 14008KT CAVOK
                 TX19/2612Z TN16/2603Z
    PROB40 TEMPO 2612/2618 14018KT
    PROB40 TEMPO 2615/2618 2000 -RA BKN001=
TAF LDSB 251125Z 2512/2612 14008KT 9999 FEW030
                 TX20/2512Z TN16/2603Z=
TAF LDSB 250604Z 2507/2606 16008KT CAVOK
                 TX20/2512Z TN12/2604Z=
TAF LDSB 250603Z 2507/2606 16008KT CAVOK
                 TX20/2512Z TN12/2604Z=